Terminal Aerodrome Forecast
Issued by NWS Wichita, KS

Home | Current Version | Previous Version | Text Only | Print | Product List | Glossary On
Versions: 1 2 3 4 5 6 7 8 9 10 11 12 13 14 15 16 17 18 19 20 21
192
FTUS43 KICT 171129
TAFICT
TAF
KICT 171129Z 1712/1812 31008KT P6SM SCT012 OVC025
      TEMPO 1712/1714 BKN012
     FM171400 32006KT P6SM BKN035 OVC080
     FM171800 33006KT P6SM SCT120
     FM180000 VRB03KT P6SM SKC=

USA.gov is the U.S. government's official web portal to all federal, state and local government web resources and services.